sensor_id;sensor_type;location;lat;lon;timestamp;temperature;humidity
40257;DHT22;25977;45.462;9.210;2023-05-07T00:01:58;23.20;69.80
40257;DHT22;25977;45.462;9.210;2023-05-07T00:04:24;23.20;69.90
40257;DHT22;25977;45.462;9.210;2023-05-07T00:06:49;23.20;70.10
40257;DHT22;25977;45.462;9.210;2023-05-07T00:09:15;23.20;70.30
40257;DHT22;25977;45.462;9.210;2023-05-07T00:11:42;23.10;70.20
40257;DHT22;25977;45.462;9.210;2023-05-07T00:14:07;23.20;70.40
40257;DHT22;25977;45.462;9.210;2023-05-07T00:16:33;23.10;70.30
40257;DHT22;25977;45.462;9.210;2023-05-07T00:18:58;23.20;70.40
40257;DHT22;25977;45.462;9.210;2023-05-07T00:21:24;23.20;70.30
40257;DHT22;25977;45.462;9.210;2023-05-07T00:23:53;23.20;70.30
40257;DHT22;25977;45.462;9.210;2023-05-07T00:26:18;23.20;70.30
40257;DHT22;25977;45.462;9.210;2023-05-07T00:28:47;23.20;70.30
40257;DHT22;25977;45.462;9.210;2023-05-07T00:31:13;23.20;70.20
40257;DHT22;25977;45.462;9.210;2023-05-07T00:33:39;23.30;70.20
40257;DHT22;25977;45.462;9.210;2023-05-07T00:36:04;23.30;70.10
40257;DHT22;25977;45.462;9.210;2023-05-07T00:38:30;23.30;67.50
40257;DHT22;25977;45.462;9.210;2023-05-07T00:40:56;23.30;65.70
40257;DHT22;25977;45.462;9.210;2023-05-07T00:43:21;23.30;64.20
40257;DHT22;25977;45.462;9.210;2023-05-07T00:45:47;23.30;63.30
40257;DHT22;25977;45.462;9.210;2023-05-07T00:48:13;23.20;61.80
40257;DHT22;25977;45.462;9.210;2023-05-07T00:50:39;23.20;60.90
40257;DHT22;25977;45.462;9.210;2023-05-07T00:53:05;23.10;60.30
40257;DHT22;25977;45.462;9.210;2023-05-07T00:55:32;23.10;59.30
40257;DHT22;25977;45.462;9.210;2023-05-07T00:57:57;23.00;59.60
40257;DHT22;25977;45.462;9.210;2023-05-07T01:00:23;23.00;59.50
40257;DHT22;25977;45.462;9.210;2023-05-07T01:02:50;23.00;59.70
40257;DHT22;25977;45.462;9.210;2023-05-07T01:05:17;23.00;59.70
40257;DHT22;25977;45.462;9.210;2023-05-07T01:07:44;23.00;59.30
40257;DHT22;25977;45.462;9.210;2023-05-07T01:10:11;23.00;59.70
40257;DHT22;25977;45.462;9.210;2023-05-07T01:12:38;23.00;59.70
40257;DHT22;25977;45.462;9.210;2023-05-07T01:15:05;23.00;59.90
40257;DHT22;25977;45.462;9.210;2023-05-07T01:17:38;22.90;60.00
40257;DHT22;25977;45.462;9.210;2023-05-07T01:20:07;22.80;60.40
40257;DHT22;25977;45.462;9.210;2023-05-07T01:22:40;22.70;61.70
40257;DHT22;25977;45.462;9.210;2023-05-07T01:25:07;22.70;62.30
40257;DHT22;25977;45.462;9.210;2023-05-07T01:27:34;22.70;63.60
40257;DHT22;25977;45.462;9.210;2023-05-07T01:30:01;22.70;66.20
40257;DHT22;25977;45.462;9.210;2023-05-07T01:32:38;22.50;67.10
40257;DHT22;25977;45.462;9.210;2023-05-07T01:35:09;22.50;67.60
40257;DHT22;25977;45.462;9.210;2023-05-07T01:37:35;22.60;67.80
40257;DHT22;25977;45.462;9.210;2023-05-07T01:40:02;22.60;67.90
40257;DHT22;25977;45.462;9.210;2023-05-07T01:42:29;22.60;67.90
40257;DHT22;25977;45.462;9.210;2023-05-07T01:44:55;22.40;68.10
40257;DHT22;25977;45.462;9.210;2023-05-07T01:47:21;22.40;68.20
40257;DHT22;25977;45.462;9.210;2023-05-07T01:49:47;22.30;68.50
40257;DHT22;25977;45.462;9.210;2023-05-07T01:52:13;22.20;68.80
40257;DHT22;25977;45.462;9.210;2023-05-07T01:54:39;22.10;68.90
40257;DHT22;25977;45.462;9.210;2023-05-07T01:57:05;22.10;69.40
40257;DHT22;25977;45.462;9.210;2023-05-07T01:59:30;22.10;68.80
40257;DHT22;25977;45.462;9.210;2023-05-07T02:01:56;22.00;68.80
40257;DHT22;25977;45.462;9.210;2023-05-07T02:04:22;22.00;68.80
40257;DHT22;25977;45.462;9.210;2023-05-07T02:06:49;22.00;68.60
40257;DHT22;25977;45.462;9.210;2023-05-07T02:09:16;21.80;68.80
40257;DHT22;25977;45.462;9.210;2023-05-07T02:11:44;21.80;68.60
40257;DHT22;25977;45.462;9.210;2023-05-07T02:14:12;21.80;68.10
40257;DHT22;25977;45.462;9.210;2023-05-07T02:16:38;21.70;67.50
40257;DHT22;25977;45.462;9.210;2023-05-07T02:19:04;21.70;67.20
40257;DHT22;25977;45.462;9.210;2023-05-07T02:21:30;21.70;67.40
40257;DHT22;25977;45.462;9.210;2023-05-07T02:23:56;21.60;68.00
40257;DHT22;25977;45.462;9.210;2023-05-07T02:26:22;21.20;70.20
40257;DHT22;25977;45.462;9.210;2023-05-07T02:28:48;21.20;70.20
40257;DHT22;25977;45.462;9.210;2023-05-07T02:31:13;21.10;70.40
40257;DHT22;25977;45.462;9.210;2023-05-07T02:33:39;21.00;70.60
40257;DHT22;25977;45.462;9.210;2023-05-07T02:36:11;20.90;70.60
40257;DHT22;25977;45.462;9.210;2023-05-07T02:38:47;20.90;70.80
40257;DHT22;25977;45.462;9.210;2023-05-07T02:41:12;21.00;70.80
40257;DHT22;25977;45.462;9.210;2023-05-07T02:43:38;21.00;70.80
40257;DHT22;25977;45.462;9.210;2023-05-07T02:46:08;21.10;70.60
40257;DHT22;25977;45.462;9.210;2023-05-07T02:48:37;21.10;70.00
40257;DHT22;25977;45.462;9.210;2023-05-07T02:51:03;21.00;69.30
40257;DHT22;25977;45.462;9.210;2023-05-07T02:53:31;21.00;69.20
40257;DHT22;25977;45.462;9.210;2023-05-07T02:55:58;21.00;69.20
40257;DHT22;25977;45.462;9.210;2023-05-07T02:58:24;21.00;69.30
40257;DHT22;25977;45.462;9.210;2023-05-07T03:00:50;21.00;69.40
40257;DHT22;25977;45.462;9.210;2023-05-07T03:03:38;21.00;69.80
40257;DHT22;25977;45.462;9.210;2023-05-07T03:06:04;21.00;69.90
40257;DHT22;25977;45.462;9.210;2023-05-07T03:08:30;21.00;70.00
40257;DHT22;25977;45.462;9.210;2023-05-07T03:10:55;21.00;70.30
40257;DHT22;25977;45.462;9.210;2023-05-07T03:13:21;21.00;70.50
40257;DHT22;25977;45.462;9.210;2023-05-07T03:15:48;20.80;71.30
40257;DHT22;25977;45.462;9.210;2023-05-07T03:18:13;20.20;71.90
40257;DHT22;25977;45.462;9.210;2023-05-07T03:20:39;20.70;72.20
40257;DHT22;25977;45.462;9.210;2023-05-07T03:23:06;20.70;72.60
40257;DHT22;25977;45.462;9.210;2023-05-07T03:25:32;20.60;72.90
40257;DHT22;25977;45.462;9.210;2023-05-07T03:27:57;20.70;73.10
40257;DHT22;25977;45.462;9.210;2023-05-07T03:30:28;20.80;73.00
40257;DHT22;25977;45.462;9.210;2023-05-07T03:32:54;20.60;73.40
40257;DHT22;25977;45.462;9.210;2023-05-07T03:35:20;20.50;73.90
40257;DHT22;25977;45.462;9.210;2023-05-07T03:37:46;20.40;74.40
40257;DHT22;25977;45.462;9.210;2023-05-07T03:40:12;20.40;75.10
40257;DHT22;25977;45.462;9.210;2023-05-07T03:42:51;20.20;75.60
40257;DHT22;25977;45.462;9.210;2023-05-07T03:45:19;20.10;76.00
40257;DHT22;25977;45.462;9.210;2023-05-07T03:47:51;20.00;76.40
40257;DHT22;25977;45.462;9.210;2023-05-07T03:50:19;20.10;76.60
40257;DHT22;25977;45.462;9.210;2023-05-07T03:52:45;20.00;76.80
40257;DHT22;25977;45.462;9.210;2023-05-07T03:55:12;20.20;76.50
40257;DHT22;25977;45.462;9.210;2023-05-07T03:57:41;20.30;76.20
40257;DHT22;25977;45.462;9.210;2023-05-07T04:00:07;20.30;76.00
40257;DHT22;25977;45.462;9.210;2023-05-07T04:02:46;20.20;76.60
40257;DHT22;25977;45.462;9.210;2023-05-07T04:05:14;20.10;77.10
40257;DHT22;25977;45.462;9.210;2023-05-07T04:07:40;20.00;76.80
40257;DHT22;25977;45.462;9.210;2023-05-07T04:10:08;20.10;76.50
40257;DHT22;25977;45.462;9.210;2023-05-07T04:12:34;20.10;76.30
40257;DHT22;25977;45.462;9.210;2023-05-07T04:15:00;20.10;76.20
40257;DHT22;25977;45.462;9.210;2023-05-07T04:17:27;20.20;76.10
40257;DHT22;25977;45.462;9.210;2023-05-07T04:19:52;20.00;76.20
40257;DHT22;25977;45.462;9.210;2023-05-07T04:22:18;20.00;76.50
40257;DHT22;25977;45.462;9.210;2023-05-07T04:24:44;20.00;76.90
40257;DHT22;25977;45.462;9.210;2023-05-07T04:27:12;19.90;77.40
40257;DHT22;25977;45.462;9.210;2023-05-07T04:29:38;20.00;77.60
40257;DHT22;25977;45.462;9.210;2023-05-07T04:32:09;19.70;78.20
40257;DHT22;25977;45.462;9.210;2023-05-07T04:34:37;19.70;78.20
40257;DHT22;25977;45.462;9.210;2023-05-07T04:37:03;19.70;78.50
40257;DHT22;25977;45.462;9.210;2023-05-07T04:39:30;19.60;78.60
40257;DHT22;25977;45.462;9.210;2023-05-07T04:41:55;19.80;78.60
40257;DHT22;25977;45.462;9.210;2023-05-07T04:44:22;19.70;78.70
40257;DHT22;25977;45.462;9.210;2023-05-07T04:46:48;19.50;78.90
40257;DHT22;25977;45.462;9.210;2023-05-07T04:49:14;19.60;78.70
40257;DHT22;25977;45.462;9.210;2023-05-07T04:51:40;19.50;79.00
40257;DHT22;25977;45.462;9.210;2023-05-07T04:54:09;19.70;78.70
40257;DHT22;25977;45.462;9.210;2023-05-07T04:56:35;19.80;78.40
40257;DHT22;25977;45.462;9.210;2023-05-07T04:59:02;19.90;78.20
40257;DHT22;25977;45.462;9.210;2023-05-07T05:01:29;20.00;77.90
40257;DHT22;25977;45.462;9.210;2023-05-07T05:03:55;19.90;77.50
40257;DHT22;25977;45.462;9.210;2023-05-07T05:06:20;19.80;77.60
40257;DHT22;25977;45.462;9.210;2023-05-07T05:08:46;19.80;77.90
40257;DHT22;25977;45.462;9.210;2023-05-07T05:11:12;19.90;77.70
40257;DHT22;25977;45.462;9.210;2023-05-07T05:13:38;20.00;77.50
40257;DHT22;25977;45.462;9.210;2023-05-07T05:16:10;20.10;77.30
40257;DHT22;25977;45.462;9.210;2023-05-07T05:18:36;20.20;77.00
40257;DHT22;25977;45.462;9.210;2023-05-07T05:21:03;20.30;76.80
40257;DHT22;25977;45.462;9.210;2023-05-07T05:23:30;20.30;76.50
40257;DHT22;25977;45.462;9.210;2023-05-07T05:25:57;20.40;76.40
40257;DHT22;25977;45.462;9.210;2023-05-07T05:28:24;20.40;76.30
40257;DHT22;25977;45.462;9.210;2023-05-07T05:30:50;20.40;76.10
40257;DHT22;25977;45.462;9.210;2023-05-07T05:33:16;20.40;76.00
40257;DHT22;25977;45.462;9.210;2023-05-07T05:35:42;20.50;76.30
40257;DHT22;25977;45.462;9.210;2023-05-07T05:38:11;20.50;76.20
40257;DHT22;25977;45.462;9.210;2023-05-07T05:40:37;20.50;76.20
40257;DHT22;25977;45.462;9.210;2023-05-07T05:43:03;20.50;76.40
40257;DHT22;25977;45.462;9.210;2023-05-07T05:45:30;20.60;76.30
40257;DHT22;25977;45.462;9.210;2023-05-07T05:47:56;20.80;76.20
40257;DHT22;25977;45.462;9.210;2023-05-07T05:50:22;21.00;75.90
40257;DHT22;25977;45.462;9.210;2023-05-07T05:52:48;21.20;75.20
40257;DHT22;25977;45.462;9.210;2023-05-07T05:55:15;21.60;74.70
40257;DHT22;25977;45.462;9.210;2023-05-07T05:57:41;21.80;74.10
40257;DHT22;25977;45.462;9.210;2023-05-07T06:00:09;22.00;73.60
40257;DHT22;25977;45.462;9.210;2023-05-07T06:02:44;21.90;72.90
40257;DHT22;25977;45.462;9.210;2023-05-07T06:05:11;22.00;73.00
40257;DHT22;25977;45.462;9.210;2023-05-07T06:07:38;22.10;73.00
40257;DHT22;25977;45.462;9.210;2023-05-07T06:10:04;22.40;72.30
40257;DHT22;25977;45.462;9.210;2023-05-07T06:12:32;22.70;71.90
40257;DHT22;25977;45.462;9.210;2023-05-07T06:14:57;22.80;71.40
40257;DHT22;25977;45.462;9.210;2023-05-07T06:17:23;23.00;71.40
40257;DHT22;25977;45.462;9.210;2023-05-07T06:19:50;23.30;70.50
40257;DHT22;25977;45.462;9.210;2023-05-07T06:22:18;23.50;69.10
40257;DHT22;25977;45.462;9.210;2023-05-07T06:24:44;23.50;68.40
40257;DHT22;25977;45.462;9.210;2023-05-07T06:27:10;23.30;68.80
40257;DHT22;25977;45.462;9.210;2023-05-07T06:29:36;23.10;69.30
40257;DHT22;25977;45.462;9.210;2023-05-07T06:32:12;22.80;70.10
40257;DHT22;25977;45.462;9.210;2023-05-07T06:34:40;22.60;70.70
40257;DHT22;25977;45.462;9.210;2023-05-07T06:37:07;22.50;71.30
40257;DHT22;25977;45.462;9.210;2023-05-07T06:39:59;22.40;72.40
40257;DHT22;25977;45.462;9.210;2023-05-07T06:42:24;22.40;72.00
40257;DHT22;25977;45.462;9.210;2023-05-07T06:44:57;22.30;71.70
40257;DHT22;25977;45.462;9.210;2023-05-07T06:47:22;22.30;71.60
40257;DHT22;25977;45.462;9.210;2023-05-07T06:49:51;22.30;71.80
40257;DHT22;25977;45.462;9.210;2023-05-07T06:52:20;22.30;71.80
40257;DHT22;25977;45.462;9.210;2023-05-07T06:54:48;22.30;71.60
40257;DHT22;25977;45.462;9.210;2023-05-07T06:57:16;22.30;71.40
40257;DHT22;25977;45.462;9.210;2023-05-07T06:59:41;22.40;71.10
40257;DHT22;25977;45.462;9.210;2023-05-07T07:02:08;22.40;70.70
40257;DHT22;25977;45.462;9.210;2023-05-07T07:04:34;22.20;70.50
40257;DHT22;25977;45.462;9.210;2023-05-07T07:07:04;22.20;70.90
40257;DHT22;25977;45.462;9.210;2023-05-07T07:09:31;22.30;71.00
40257;DHT22;25977;45.462;9.210;2023-05-07T07:11:58;22.50;70.70
40257;DHT22;25977;45.462;9.210;2023-05-07T07:14:23;22.80;70.40
40257;DHT22;25977;45.462;9.210;2023-05-07T07:16:51;22.90;70.30
40257;DHT22;25977;45.462;9.210;2023-05-07T07:19:19;23.10;70.40
40257;DHT22;25977;45.462;9.210;2023-05-07T07:21:47;23.40;69.50
40257;DHT22;25977;45.462;9.210;2023-05-07T07:24:14;23.50;69.00
40257;DHT22;25977;45.462;9.210;2023-05-07T07:26:45;23.60;68.90
40257;DHT22;25977;45.462;9.210;2023-05-07T07:29:11;23.50;68.50
40257;DHT22;25977;45.462;9.210;2023-05-07T07:31:37;23.50;68.40
40257;DHT22;25977;45.462;9.210;2023-05-07T07:34:03;23.40;68.60
40257;DHT22;25977;45.462;9.210;2023-05-07T07:36:29;23.50;68.50
40257;DHT22;25977;45.462;9.210;2023-05-07T07:38:55;23.50;68.40
40257;DHT22;25977;45.462;9.210;2023-05-07T07:41:21;23.60;68.00
40257;DHT22;25977;45.462;9.210;2023-05-07T07:43:47;23.80;67.40
40257;DHT22;25977;45.462;9.210;2023-05-07T07:46:13;24.00;67.10
40257;DHT22;25977;45.462;9.210;2023-05-07T07:48:39;24.10;66.70
40257;DHT22;25977;45.462;9.210;2023-05-07T07:51:05;24.20;66.40
40257;DHT22;25977;45.462;9.210;2023-05-07T07:53:32;24.30;66.40
40257;DHT22;25977;45.462;9.210;2023-05-07T07:55:58;24.40;66.20
40257;DHT22;25977;45.462;9.210;2023-05-07T07:58:26;24.60;65.80
40257;DHT22;25977;45.462;9.210;2023-05-07T08:00:52;24.70;65.40
40257;DHT22;25977;45.462;9.210;2023-05-07T08:03:21;24.80;64.40
40257;DHT22;25977;45.462;9.210;2023-05-07T08:05:51;24.90;64.60
40257;DHT22;25977;45.462;9.210;2023-05-07T08:08:17;25.00;64.40
40257;DHT22;25977;45.462;9.210;2023-05-07T08:10:43;24.70;64.60
40257;DHT22;25977;45.462;9.210;2023-05-07T08:13:17;24.90;64.70
40257;DHT22;25977;45.462;9.210;2023-05-07T08:15:43;25.20;64.30
40257;DHT22;25977;45.462;9.210;2023-05-07T08:18:10;25.20;64.10
40257;DHT22;25977;45.462;9.210;2023-05-07T08:20:37;25.30;63.90
40257;DHT22;25977;45.462;9.210;2023-05-07T08:23:06;25.50;63.70
40257;DHT22;25977;45.462;9.210;2023-05-07T08:25:33;25.50;63.10
40257;DHT22;25977;45.462;9.210;2023-05-07T08:28:00;25.50;63.20
40257;DHT22;25977;45.462;9.210;2023-05-07T08:30:26;25.50;63.20
40257;DHT22;25977;45.462;9.210;2023-05-07T08:32:52;25.50;63.70
40257;DHT22;25977;45.462;9.210;2023-05-07T08:35:18;25.50;63.90
40257;DHT22;25977;45.462;9.210;2023-05-07T08:37:44;25.60;63.20
40257;DHT22;25977;45.462;9.210;2023-05-07T08:40:10;25.60;62.70
40257;DHT22;25977;45.462;9.210;2023-05-07T08:42:36;25.60;62.00
40257;DHT22;25977;45.462;9.210;2023-05-07T08:45:09;25.30;61.80
40257;DHT22;25977;45.462;9.210;2023-05-07T08:48:00;25.30;62.50
40257;DHT22;25977;45.462;9.210;2023-05-07T08:50:32;25.20;62.90
40257;DHT22;25977;45.462;9.210;2023-05-07T08:53:03;25.00;64.20
40257;DHT22;25977;45.462;9.210;2023-05-07T08:55:28;25.00;64.50
40257;DHT22;25977;45.462;9.210;2023-05-07T08:57:54;25.20;64.60
40257;DHT22;25977;45.462;9.210;2023-05-07T09:00:20;25.20;65.10
40257;DHT22;25977;45.462;9.210;2023-05-07T09:02:50;25.30;65.00
40257;DHT22;25977;45.462;9.210;2023-05-07T09:05:16;25.40;64.90
40257;DHT22;25977;45.462;9.210;2023-05-07T09:07:42;25.30;65.30
40257;DHT22;25977;45.462;9.210;2023-05-07T09:10:08;25.20;65.80
40257;DHT22;25977;45.462;9.210;2023-05-07T09:12:37;25.10;65.60
40257;DHT22;25977;45.462;9.210;2023-05-07T09:15:06;25.20;65.70
40257;DHT22;25977;45.462;9.210;2023-05-07T09:17:32;25.20;65.90
40257;DHT22;25977;45.462;9.210;2023-05-07T09:20:05;25.40;65.90
40257;DHT22;25977;45.462;9.210;2023-05-07T09:22:32;25.40;65.50
40257;DHT22;25977;45.462;9.210;2023-05-07T09:25:03;25.30;65.50
40257;DHT22;25977;45.462;9.210;2023-05-07T09:27:30;25.50;65.80
40257;DHT22;25977;45.462;9.210;2023-05-07T09:29:57;25.50;65.50
40257;DHT22;25977;45.462;9.210;2023-05-07T09:32:24;25.30;63.70
40257;DHT22;25977;45.462;9.210;2023-05-07T09:34:51;25.40;63.60
40257;DHT22;25977;45.462;9.210;2023-05-07T09:37:22;25.20;64.80
40257;DHT22;25977;45.462;9.210;2023-05-07T09:39:49;25.00;65.30
40257;DHT22;25977;45.462;9.210;2023-05-07T09:42:23;25.10;65.70
40257;DHT22;25977;45.462;9.210;2023-05-07T09:44:50;25.20;66.00
40257;DHT22;25977;45.462;9.210;2023-05-07T09:47:20;25.30;65.70
40257;DHT22;25977;45.462;9.210;2023-05-07T09:49:55;25.30;64.40
40257;DHT22;25977;45.462;9.210;2023-05-07T09:52:22;25.30;65.00
40257;DHT22;25977;45.462;9.210;2023-05-07T09:54:52;25.40;65.50
40257;DHT22;25977;45.462;9.210;2023-05-07T09:57:22;25.50;65.80
40257;DHT22;25977;45.462;9.210;2023-05-07T09:59:55;25.60;66.00
40257;DHT22;25977;45.462;9.210;2023-05-07T10:02:23;25.60;65.70
40257;DHT22;25977;45.462;9.210;2023-05-07T10:04:52;25.40;65.30
40257;DHT22;25977;45.462;9.210;2023-05-07T10:07:24;25.40;65.50
40257;DHT22;25977;45.462;9.210;2023-05-07T10:09:55;25.50;66.20
40257;DHT22;25977;45.462;9.210;2023-05-07T10:12:32;25.40;67.30
40257;DHT22;25977;45.462;9.210;2023-05-07T10:15:10;25.50;66.90
40257;DHT22;25977;45.462;9.210;2023-05-07T10:17:39;25.60;66.60
40257;DHT22;25977;45.462;9.210;2023-05-07T10:20:07;25.60;66.50
40257;DHT22;25977;45.462;9.210;2023-05-07T10:22:45;25.70;66.30
40257;DHT22;25977;45.462;9.210;2023-05-07T10:25:23;25.80;65.80
40257;DHT22;25977;45.462;9.210;2023-05-07T10:27:52;25.80;65.50
40257;DHT22;25977;45.462;9.210;2023-05-07T10:33:13;25.80;65.40
40257;DHT22;25977;45.462;9.210;2023-05-07T10:35:44;25.70;64.00
40257;DHT22;25977;45.462;9.210;2023-05-07T10:38:11;25.50;64.50
40257;DHT22;25977;45.462;9.210;2023-05-07T10:40:39;25.60;64.60
40257;DHT22;25977;45.462;9.210;2023-05-07T10:43:07;25.80;64.40
40257;DHT22;25977;45.462;9.210;2023-05-07T10:45:39;25.90;64.50
40257;DHT22;25977;45.462;9.210;2023-05-07T10:48:10;25.90;64.80
40257;DHT22;25977;45.462;9.210;2023-05-07T10:50:41;25.90;64.80
40257;DHT22;25977;45.462;9.210;2023-05-07T10:58:49;26.00;64.60
40257;DHT22;25977;45.462;9.210;2023-05-07T11:04:45;26.00;64.70
40257;DHT22;25977;45.462;9.210;2023-05-07T11:07:28;26.20;64.30
40257;DHT22;25977;45.462;9.210;2023-05-07T11:10:00;26.30;63.80
40257;DHT22;25977;45.462;9.210;2023-05-07T11:15:42;26.40;63.10
40257;DHT22;25977;45.462;9.210;2023-05-07T11:18:17;26.40;63.20
40257;DHT22;25977;45.462;9.210;2023-05-07T11:20:46;26.00;63.30
40257;DHT22;25977;45.462;9.210;2023-05-07T11:26:18;26.10;63.00
40257;DHT22;25977;45.462;9.210;2023-05-07T11:28:45;26.20;62.90
40257;DHT22;25977;45.462;9.210;2023-05-07T11:31:11;26.20;62.70
40257;DHT22;25977;45.462;9.210;2023-05-07T11:33:38;26.20;62.80
40257;DHT22;25977;45.462;9.210;2023-05-07T11:36:08;26.10;63.40
40257;DHT22;25977;45.462;9.210;2023-05-07T11:38:39;26.10;63.60
40257;DHT22;25977;45.462;9.210;2023-05-07T11:41:06;26.10;63.70
40257;DHT22;25977;45.462;9.210;2023-05-07T11:43:32;26.20;63.40
40257;DHT22;25977;45.462;9.210;2023-05-07T11:46:09;26.20;63.30
40257;DHT22;25977;45.462;9.210;2023-05-07T11:48:36;26.20;62.90
40257;DHT22;25977;45.462;9.210;2023-05-07T11:51:04;26.30;62.60
40257;DHT22;25977;45.462;9.210;2023-05-07T11:53:41;26.30;62.20
40257;DHT22;25977;45.462;9.210;2023-05-07T11:56:08;26.30;62.30
40257;DHT22;25977;45.462;9.210;2023-05-07T11:58:34;26.30;62.70
40257;DHT22;25977;45.462;9.210;2023-05-07T12:01:00;26.40;62.30
40257;DHT22;25977;45.462;9.210;2023-05-07T12:03:26;26.40;61.80
40257;DHT22;25977;45.462;9.210;2023-05-07T12:05:52;26.30;61.80
40257;DHT22;25977;45.462;9.210;2023-05-07T12:08:19;26.10;62.10
40257;DHT22;25977;45.462;9.210;2023-05-07T12:10:47;26.10;61.70
40257;DHT22;25977;45.462;9.210;2023-05-07T12:13:16;26.20;62.20
40257;DHT22;25977;45.462;9.210;2023-05-07T12:15:42;26.30;61.90
40257;DHT22;25977;45.462;9.210;2023-05-07T12:18:09;26.40;61.60
40257;DHT22;25977;45.462;9.210;2023-05-07T12:20:36;26.50;61.10
40257;DHT22;25977;45.462;9.210;2023-05-07T12:23:02;26.50;60.90
40257;DHT22;25977;45.462;9.210;2023-05-07T12:25:32;26.50;60.60
40257;DHT22;25977;45.462;9.210;2023-05-07T12:27:57;26.40;60.20
40257;DHT22;25977;45.462;9.210;2023-05-07T12:30:25;26.50;59.60
40257;DHT22;25977;45.462;9.210;2023-05-07T12:32:54;26.40;59.30
40257;DHT22;25977;45.462;9.210;2023-05-07T12:35:30;26.50;59.10
40257;DHT22;25977;45.462;9.210;2023-05-07T12:37:59;26.40;58.40
40257;DHT22;25977;45.462;9.210;2023-05-07T12:40:37;26.40;58.60
40257;DHT22;25977;45.462;9.210;2023-05-07T12:43:03;26.30;59.10
40257;DHT22;25977;45.462;9.210;2023-05-07T12:45:29;26.40;59.60
40257;DHT22;25977;45.462;9.210;2023-05-07T12:47:54;26.40;59.90
40257;DHT22;25977;45.462;9.210;2023-05-07T12:50:20;26.30;60.00
40257;DHT22;25977;45.462;9.210;2023-05-07T12:52:49;26.30;59.90
40257;DHT22;25977;45.462;9.210;2023-05-07T12:55:15;26.50;59.80
40257;DHT22;25977;45.462;9.210;2023-05-07T12:57:42;26.60;59.80
40257;DHT22;25977;45.462;9.210;2023-05-07T13:00:09;26.50;59.40
40257;DHT22;25977;45.462;9.210;2023-05-07T13:02:39;26.70;59.50
40257;DHT22;25977;45.462;9.210;2023-05-07T13:05:05;26.60;59.60
40257;DHT22;25977;45.462;9.210;2023-05-07T13:07:30;26.70;60.00
40257;DHT22;25977;45.462;9.210;2023-05-07T13:09:56;26.70;60.00
40257;DHT22;25977;45.462;9.210;2023-05-07T13:12:22;26.70;59.90
40257;DHT22;25977;45.462;9.210;2023-05-07T13:14:47;26.80;59.60
40257;DHT22;25977;45.462;9.210;2023-05-07T13:17:13;27.00;59.80
40257;DHT22;25977;45.462;9.210;2023-05-07T13:19:38;26.90;58.50
40257;DHT22;25977;45.462;9.210;2023-05-07T13:22:04;26.70;57.80
40257;DHT22;25977;45.462;9.210;2023-05-07T13:24:30;26.80;58.70
40257;DHT22;25977;45.462;9.210;2023-05-07T13:26:59;26.80;58.60
40257;DHT22;25977;45.462;9.210;2023-05-07T13:29:25;26.70;58.30
40257;DHT22;25977;45.462;9.210;2023-05-07T13:31:54;26.80;58.30
40257;DHT22;25977;45.462;9.210;2023-05-07T13:34:20;26.90;58.20
40257;DHT22;25977;45.462;9.210;2023-05-07T13:36:46;27.00;57.90
40257;DHT22;25977;45.462;9.210;2023-05-07T13:39:11;27.00;57.60
40257;DHT22;25977;45.462;9.210;2023-05-07T13:41:37;27.10;57.60
40257;DHT22;25977;45.462;9.210;2023-05-07T13:44:03;27.10;57.50
40257;DHT22;25977;45.462;9.210;2023-05-07T13:46:28;27.10;57.20
40257;DHT22;25977;45.462;9.210;2023-05-07T13:48:55;27.00;57.30
40257;DHT22;25977;45.462;9.210;2023-05-07T13:51:21;27.10;56.50
40257;DHT22;25977;45.462;9.210;2023-05-07T13:53:47;26.60;56.90
40257;DHT22;25977;45.462;9.210;2023-05-07T13:56:13;26.60;57.30
40257;DHT22;25977;45.462;9.210;2023-05-07T13:58:40;26.70;56.60
40257;DHT22;25977;45.462;9.210;2023-05-07T14:01:05;26.90;56.60
40257;DHT22;25977;45.462;9.210;2023-05-07T14:03:31;27.10;56.40
40257;DHT22;25977;45.462;9.210;2023-05-07T14:05:59;27.20;56.60
40257;DHT22;25977;45.462;9.210;2023-05-07T14:08:25;27.30;56.60
40257;DHT22;25977;45.462;9.210;2023-05-07T14:10:51;27.40;56.50
40257;DHT22;25977;45.462;9.210;2023-05-07T14:13:17;27.40;56.70
40257;DHT22;25977;45.462;9.210;2023-05-07T14:15:43;27.40;56.60
40257;DHT22;25977;45.462;9.210;2023-05-07T14:18:12;27.30;56.20
40257;DHT22;25977;45.462;9.210;2023-05-07T14:20:38;27.20;56.80
40257;DHT22;25977;45.462;9.210;2023-05-07T14:23:04;27.30;56.70
40257;DHT22;25977;45.462;9.210;2023-05-07T14:25:30;27.10;56.60
40257;DHT22;25977;45.462;9.210;2023-05-07T14:27:55;27.10;56.40
40257;DHT22;25977;45.462;9.210;2023-05-07T14:30:21;27.10;56.80
40257;DHT22;25977;45.462;9.210;2023-05-07T14:32:50;27.10;56.80
40257;DHT22;25977;45.462;9.210;2023-05-07T14:35:16;27.10;56.80
40257;DHT22;25977;45.462;9.210;2023-05-07T14:37:42;26.90;57.00
40257;DHT22;25977;45.462;9.210;2023-05-07T14:40:08;26.80;56.90
40257;DHT22;25977;45.462;9.210;2023-05-07T14:42:34;26.90;57.20
40257;DHT22;25977;45.462;9.210;2023-05-07T14:45:00;26.90;57.20
40257;DHT22;25977;45.462;9.210;2023-05-07T14:47:26;27.00;57.30
40257;DHT22;25977;45.462;9.210;2023-05-07T14:49:51;27.00;57.00
40257;DHT22;25977;45.462;9.210;2023-05-07T14:52:18;27.00;56.90
40257;DHT22;25977;45.462;9.210;2023-05-07T14:54:44;26.80;57.10
40257;DHT22;25977;45.462;9.210;2023-05-07T14:57:10;26.90;57.20
40257;DHT22;25977;45.462;9.210;2023-05-07T14:59:38;26.90;57.10
40257;DHT22;25977;45.462;9.210;2023-05-07T15:02:05;26.90;57.20
40257;DHT22;25977;45.462;9.210;2023-05-07T15:04:33;26.90;57.20
40257;DHT22;25977;45.462;9.210;2023-05-07T15:07:00;26.90;57.20
40257;DHT22;25977;45.462;9.210;2023-05-07T15:09:26;26.90;57.20
40257;DHT22;25977;45.462;9.210;2023-05-07T15:11:52;26.90;56.90
40257;DHT22;25977;45.462;9.210;2023-05-07T15:14:17;26.90;57.00
40257;DHT22;25977;45.462;9.210;2023-05-07T15:16:43;26.80;56.90
40257;DHT22;25977;45.462;9.210;2023-05-07T15:19:09;26.50;56.90
40257;DHT22;25977;45.462;9.210;2023-05-07T15:21:34;26.60;57.10
40257;DHT22;25977;45.462;9.210;2023-05-07T15:24:02;26.70;57.20
40257;DHT22;25977;45.462;9.210;2023-05-07T15:26:27;26.70;57.30
40257;DHT22;25977;45.462;9.210;2023-05-07T15:28:54;26.40;57.50
40257;DHT22;25977;45.462;9.210;2023-05-07T15:31:23;26.50;57.60
40257;DHT22;25977;45.462;9.210;2023-05-07T15:33:49;26.60;57.40
40257;DHT22;25977;45.462;9.210;2023-05-07T15:36:15;26.60;57.50
40257;DHT22;25977;45.462;9.210;2023-05-07T15:38:41;26.70;57.60
40257;DHT22;25977;45.462;9.210;2023-05-07T15:41:07;26.70;57.60
40257;DHT22;25977;45.462;9.210;2023-05-07T15:43:32;26.80;57.80
40257;DHT22;25977;45.462;9.210;2023-05-07T15:45:58;26.80;58.00
40257;DHT22;25977;45.462;9.210;2023-05-07T15:48:25;26.70;57.70
40257;DHT22;25977;45.462;9.210;2023-05-07T15:50:51;26.40;57.80